< Typhoon 197805 1978 Season Typhoon 197807 >
Typhoon 197806 (TRIX)
General InformationTrack Information on Google MapsDetailed Wind Information || Disaster Info.ResourceGoogle EarthGE AnimationAtom FeedGeoJSON
Detalied Best Track (Time Zone = UTC)
Year Month Day Hour Lat. Long. Pressure (hPa) Wind (kt) Class Image Chart
1978 7 11 06 19.0 153.0 1008 0 2 -- Chart
1978 7 11 12 19.2 152.3 1008 0 2 -- Chart
1978 7 11 18 19.6 152.0 1008 0 2 -- Chart
1978 7 12 00 20.0 151.5 1006 0 2 -- Chart
1978 7 12 06 20.7 150.7 1006 0 2 -- Chart
1978 7 12 12 21.4 150.0 1004 0 2 -- Chart
1978 7 12 18 22.3 149.2 1004 0 2 -- Chart
1978 7 13 00 23.0 148.0 1004 0 2 -- Chart
1978 7 13 06 23.5 146.4 1004 0 2 -- Chart
1978 7 13 12 23.7 145.5 1004 0 2 -- Chart
1978 7 13 18 23.8 144.4 1000 0 2 -- Chart
1978 7 14 00 23.8 143.3 998 35 3 -- Chart
1978 7 14 06 23.8 142.4 996 35 3 -- Chart
1978 7 14 12 23.8 141.6 994 35 3 -- Chart
1978 7 14 18 23.8 140.8 985 35 3 -- Chart
1978 7 15 00 23.8 139.8 980 40 3 -- Chart
1978 7 15 06 23.6 138.8 980 55 4 -- Chart
1978 7 15 12 23.5 138.2 980 60 4 -- Chart
1978 7 15 18 23.2 138.0 980 60 4 -- Chart
1978 7 16 00 22.9 137.7 975 65 5 -- Chart
1978 7 16 06 22.5 137.6 970 70 5 -- Chart
1978 7 16 12 22.2 137.9 975 70 5 -- Chart
1978 7 16 18 22.1 138.4 975 70 5 -- Chart
1978 7 17 00 22.2 139.1 970 65 5 -- Chart
1978 7 17 06 22.4 139.9 965 70 5 -- Chart
1978 7 17 12 22.6 140.7 970 70 5 -- Chart
1978 7 17 18 22.9 141.6 980 70 5 -- Chart
1978 7 18 00 23.6 143.1 980 70 5 -- Chart
1978 7 18 06 24.4 144.2 980 65 5 -- Chart
1978 7 18 12 24.9 144.7 980 60 4 -- Chart
1978 7 18 18 25.5 145.3 980 55 4 -- Chart
1978 7 19 00 26.1 145.8 980 55 4 -- Chart
1978 7 19 06 26.6 146.4 985 55 4 -- Chart
1978 7 19 12 27.5 145.5 985 50 4 -- Chart
1978 7 19 18 28.3 144.5 985 50 4 -- Chart
1978 7 20 00 28.8 143.5 985 50 4 -- Chart
1978 7 20 06 29.2 142.0 990 40 3 -- Chart
1978 7 20 12 29.5 140.3 990 40 3 -- Chart
1978 7 20 18 29.6 138.6 992 40 3 -- Chart
1978 7 21 00 29.7 137.2 994 40 3 -- Chart
1978 7 21 06 29.6 135.5 996 35 3 -- Chart
1978 7 21 12 29.5 133.3 998 35 3 -- Chart
1978 7 21 18 29.3 131.2 1000 0 2 -- Chart
1978 7 22 00 28.9 129.0 1002 0 2 -- Chart
1978 7 22 06 28.7 126.8 996 40 3 -- Chart
1978 7 22 12 28.6 124.7 994 40 3 -- Chart
1978 7 22 18 28.7 122.8 994 40 3 -- Chart
1978 7 23 00 29.1 121.4 996 45 3 -- Chart
1978 7 23 06 29.7 120.2 1000 0 2 -- Chart
1978 7 23 12 30.3 118.3 1000 0 2 -- Chart
1978 7 23 18 31.0 116.0 1000 0 2 -- Chart
1978 7 24 00 32.0 116.0 1000 0 2 -- Chart
Japan Meteorological Agency Best Track Data | Correction Date : 1992-10-21
< Typhoon 197805 1978 Season Typhoon 197807 >

Help